Dentergem, Belgium
Current Conditions -  °F | °C
As of 10:20 PM on Saturday 22 Nov 2014 (Local Time) from EBOS Reporting Station
Broken Clouds Broken Clouds  
Wind Chill: 50°   Ceiling: 1600
Heat Index: 50°   Visibility: 5mi
Dew Point: 50°   Wind: 5mph
Humidity: 100%   Direction: 180°S
Pressure: 30.03"   Gusts: NA
Location:  50.96°N, 3.42°E
Report Text: EBOS 222120Z 18004KT 8000 BKN016 10/10 Q1017 TEMPO 4500 -RA BR BKN012
Loading
Personal Weather Stations






























Interactive Weather Map New forecast layout! Learn more

10-Day Weather Forecast

Advertisements
Track Severe Weather on mobile